Time;durP1;ratioP1;P1;durP2;ratioP2;P2;SDS_P1;SDS_P2;PMS_P1;PMS_P2;Temp;Humidity;BMP_temperature;BMP_pressure;BME280_temperature;BME280_humidity;BME280_pressure;Samples;Min_cycle;Max_cycle;Signal;HPM_P1;HPM_P2
2022/08/22 00:01:18;;;;;;;6.05;3.25;;;;;;;18.52;62.90;101513.53;6208138;23;20007;-88
2022/08/22 00:03:52;;;;;;;4.25;3.00;;;;;;;18.52;65.03;101518.88;6208696;23;20004;-88
2022/08/22 00:06:35;;;;;;;6.20;3.20;;;;;;;18.42;65.99;101514.16;6180799;23;20019;-88
2022/08/22 00:09:18;;;;;;;4.95;3.05;;;;;;;18.36;64.74;101500.22;6181209;23;20031;-88
2022/08/22 00:11:56;;;;;;;4.18;3.20;;;;;;;18.44;65.75;101517.63;6183952;23;20016;-87
2022/08/22 00:14:39;;;;;;;6.50;3.13;;;;;;;18.29;65.38;101514.94;6211088;23;20005;-88
2022/08/22 00:17:23;;;;;;;5.57;3.42;;;;;;;18.05;67.64;101516.47;6211622;23;20071;-88
2022/08/22 00:20:17;;;;;;;4.78;3.10;;;;;;;18.01;66.43;101518.44;6210339;23;20441;-88
2022/08/22 00:22:53;;;;;;;7.63;3.95;;;;;;;18.06;66.88;101519.03;6209499;23;20092;-88
2022/08/22 00:25:42;;;;;;;11.23;3.92;;;;;;;18.08;66.19;101509.09;6184897;23;20012;-88
2022/08/22 00:28:40;;;;;;;4.53;3.78;;;;;;;18.05;66.30;101511.09;6210852;23;20004;-88
2022/08/22 00:31:28;;;;;;;5.30;3.72;;;;;;;18.16;65.74;101522.00;6212239;23;20348;-88
2022/08/22 00:34:22;;;;;;;8.95;4.35;;;;;;;18.23;66.08;101527.84;6211738;23;20059;-88
2022/08/22 00:37:17;;;;;;;7.10;4.68;;;;;;;18.29;65.53;101514.94;6209823;23;20514;-87
2022/08/22 00:39:49;;;;;;;6.15;4.75;;;;;;;18.22;66.31;101507.38;6210354;23;20181;-88
2022/08/22 00:42:25;;;;;;;8.23;4.30;;;;;;;18.30;66.33;101516.66;6211127;23;20494;-88
2022/08/22 00:45:03;;;;;;;6.40;4.53;;;;;;;18.31;66.50;101521.06;6210164;23;20003;-87
2022/08/22 00:47:53;;;;;;;9.07;4.68;;;;;;;18.44;65.76;101515.81;6184554;23;20008;-89
2022/08/22 00:51:17;;;;;;;6.32;3.95;;;;;;;18.53;64.90;101514.38;6209716;23;20009;-90
2022/08/22 00:53:56;;;;;;;5.45;3.40;;;;;;;18.39;66.07;101515.25;6102930;23;20021;-88
2022/08/22 00:56:42;;;;;;;7.32;3.70;;;;;;;18.44;66.50;101525.66;6211504;23;20493;-88
2022/08/22 00:59:28;;;;;;;4.43;3.22;;;;;;;18.41;65.38;101499.94;6211500;23;20485;-89
2022/08/22 01:02:09;;;;;;;5.22;3.35;;;;;;;18.43;66.11;101524.81;6184650;23;20015;-88
2022/08/22 01:04:47;;;;;;;6.45;3.70;;;;;;;18.44;66.70;101525.66;6210067;23;20564;-88
2022/08/22 01:07:12;;;;;;;7.78;3.55;;;;;;;18.43;66.25;101529.31;6184362;23;20016;-87
2022/08/22 01:09:37;;;;;;;6.93;4.20;;;;;;;18.49;66.97;101520.88;6208279;23;20340;-88
2022/08/22 01:12:14;;;;;;;5.37;3.53;;;;;;;18.51;65.90;101519.84;6210402;23;21106;-88
2022/08/22 01:15:06;;;;;;;6.47;3.85;;;;;;;18.52;65.04;101515.34;6183476;23;20332;-89
2022/08/22 01:18:19;;;;;;;5.22;3.78;;;;;;;18.55;64.85;101517.81;6211588;23;20004;-88
2022/08/22 01:21:21;;;;;;;6.13;3.65;;;;;;;18.58;65.05;101517.63;6118220;23;20066;-88
2022/08/22 01:24:14;;;;;;;7.65;4.07;;;;;;;18.52;64.98;101510.84;6183300;23;20004;-88
2022/08/22 01:26:39;;;;;;;;;;;;;;;18.66;63.24;101526.03;6184803;23;20451;-88
2022/08/22 01:29:35;;;;;;;6.67;4.13;;;;;;;18.50;64.63;101520.78;6211365;23;19904;-88
2022/08/22 01:32:06;;;;;;;9.02;4.75;;;;;;;18.40;66.22;101518.78;6210928;23;20092;-87
2022/08/22 01:34:46;;;;;;;6.82;4.40;;;;;;;18.39;66.04;101520.59;6210520;23;20005;-89
2022/08/22 01:37:44;;;;;;;5.63;4.28;;;;;;;18.34;65.80;101510.16;6210953;23;20055;-88
2022/08/22 01:40:28;;;;;;;7.35;4.60;;;;;;;18.31;65.64;101515.69;6183754;23;20008;-88
2022/08/22 01:43:13;;;;;;;6.85;4.93;;;;;;;18.28;65.58;101512.38;6210590;23;20005;-88
2022/08/22 01:46:23;;;;;;;4.97;4.25;;;;;;;18.25;65.53;101513.41;6183281;23;20428;-87
2022/08/22 01:49:02;;;;;;;8.50;5.07;;;;;;;18.18;65.94;101503.16;6211005;23;20428;-88
2022/08/22 01:51:43;;;;;;;7.15;4.55;;;;;;;18.22;66.02;101512.72;6210417;23;20007;-88
2022/08/22 01:54:20;;;;;;;7.95;5.75;;;;;;;18.17;66.44;101507.66;6182108;23;20108;-87
2022/08/22 01:56:46;;;;;;;10.85;6.57;;;;;;;18.10;66.63;101498.31;6211465;23;20019;-88
2022/08/22 01:59:23;;;;;;;11.02;7.13;;;;;;;18.12;67.08;101503.56;6211556;23;20296;-87
2022/08/22 02:01:48;;;;;;;13.30;7.00;;;;;;;18.15;67.30;101503.38;6184193;23;20000;-88
2022/08/22 02:04:51;;;;;;;13.40;7.53;;;;;;;18.19;66.65;101507.59;6183471;23;20529;-88
2022/08/22 02:07:53;;;;;;;12.68;6.97;;;;;;;18.23;66.76;101509.09;6184591;23;20251;-88
2022/08/22 02:10:44;;;;;;;8.68;5.70;;;;;;;18.28;66.39;101515.06;6210088;23;20055;-88
2022/08/22 02:13:45;;;;;;;10.90;5.60;;;;;;;18.31;66.22;101507.66;6210293;23;20082;-87
2022/08/22 02:16:24;;;;;;;12.90;6.05;;;;;;;18.24;66.95;101506.34;6183926;23;20146;-88
2022/08/22 02:19:06;;;;;;;14.30;6.72;;;;;;;18.16;66.82;101505.09;6211335;23;20000;-88
2022/08/22 02:21:54;;;;;;;12.18;7.32;;;;;;;18.17;66.91;101509.47;6210365;23;19997;-87
2022/08/22 02:24:28;;;;;;;9.75;6.43;;;;;;;18.18;67.39;101508.53;6208849;23;20008;-88
2022/08/22 02:27:30;;;;;;;8.60;6.80;;;;;;;18.19;66.41;101497.75;6210408;23;20491;-88
2022/08/22 02:30:10;;;;;;;11.70;7.63;;;;;;;18.14;66.66;101498.94;6211063;23;20448;-88
2022/08/22 02:33:07;;;;;;;10.27;7.80;;;;;;;18.16;66.67;101502.41;6210996;23;20009;-88
2022/08/22 02:35:48;;;;;;;13.05;7.97;;;;;;;18.09;67.10;101500.13;6209760;23;20393;-87
2022/08/22 02:38:40;;;;;;;11.98;7.80;;;;;;;18.16;66.85;101505.94;6182202;23;20590;-89
2022/08/22 02:41:20;;;;;;;9.95;6.65;;;;;;;18.13;66.35;101491.88;6210400;23;19996;-88
2022/08/22 02:43:56;;;;;;;10.32;7.47;;;;;;;18.10;66.76;101491.13;6210505;23;20084;-88
2022/08/22 02:46:52;;;;;;;11.43;6.50;;;;;;;18.13;66.09;101497.25;6211689;23;20505;-87
2022/08/22 02:49:32;;;;;;;11.02;6.85;;;;;;;17.99;67.35;101484.69;6210394;23;20428;-88
2022/08/22 02:52:12;;;;;;;10.90;7.30;;;;;;;17.99;67.74;101484.69;6210479;23;20000;-88
2022/08/22 02:54:47;;;;;;;12.63;7.80;;;;;;;17.99;68.47;101495.41;6182155;23;20055;-88
2022/08/22 02:57:19;;;;;;;13.40;8.07;;;;;;;17.95;69.10;101491.19;6210664;23;20004;-88
2022/08/22 03:00:15;;;;;;;10.73;8.00;;;;;;;17.97;67.98;101490.16;6183439;23;20001;-89
2022/08/22 03:02:55;;;;;;;11.32;7.95;;;;;;;17.98;68.27;101496.38;6210779;23;20332;-88
2022/08/22 03:05:36;;;;;;;13.85;7.85;;;;;;;18.01;67.88;101493.50;6211143;23;20007;-87
2022/08/22 03:08:24;;;;;;;12.55;7.07;;;;;;;18.03;67.46;101486.25;6209986;23;20004;-87
2022/08/22 03:10:59;;;;;;;15.40;7.97;;;;;;;17.99;67.89;101490.91;6183181;23;20397;-88
2022/08/22 03:13:48;;;;;;;9.52;8.35;;;;;;;18.01;67.65;101489.03;6183856;23;20078;-89
2022/08/22 03:17:01;;;;;;;11.55;7.72;;;;;;;18.01;68.14;101494.38;6210442;23;20012;-88
2022/08/22 03:19:44;;;;;;;;;;;;;;;18.15;66.14;101498.03;6209784;23;20009;-88
2022/08/22 03:22:42;;;;;;;13.07;8.13;;;;;;;18.03;67.91;101488.91;6179160;23;19908;-87
2022/08/22 03:25:25;;;;;;;10.65;8.18;;;;;;;17.93;68.38;101487.75;6183111;23;20005;-89
2022/08/22 03:28:14;;;;;;;12.30;8.18;;;;;;;17.95;68.50;101480.50;6210273;23;20008;-88
2022/08/22 03:30:56;;;;;;;9.95;7.55;;;;;;;17.87;67.55;101477.44;6209654;23;20001;-88
2022/08/22 03:33:24;;;;;;;13.02;8.02;;;;;;;17.73;67.92;101457.72;6210156;23;20445;-87
2022/08/22 03:35:58;;;;;;;10.18;7.28;;;;;;;17.76;68.70;101470.91;6183836;23;20005;-88
2022/08/22 03:38:39;;;;;;;10.95;7.93;;;;;;;17.71;68.59;101466.75;6210419;23;20039;-88
2022/08/22 03:41:22;;;;;;;10.05;7.55;;;;;;;17.63;68.43;101459.22;6209584;23;20008;-88
2022/08/22 03:43:53;;;;;;;10.18;7.47;;;;;;;17.67;67.75;101467.88;6211150;23;20004;-88
2022/08/22 03:46:49;;;;;;;14.00;8.20;;;;;;;17.63;67.24;101464.56;6212446;23;20054;-89
2022/08/22 03:49:51;;;;;;;13.82;8.80;;;;;;;17.50;69.06;101467.09;6185524;23;20001;-88
2022/08/22 03:52:19;;;;;;;12.73;8.10;;;;;;;17.39;70.40;101471.34;6211572;23;20012;-88
2022/08/22 03:55:02;;;;;;;11.55;8.43;;;;;;;17.32;70.68;101461.00;6210573;23;20082;-89
2022/08/22 03:58:03;;;;;;;12.95;9.23;;;;;;;17.13;70.49;101460.34;6212284;23;20074;-87
2022/08/22 04:00:57;;;;;;;15.38;9.00;;;;;;;17.18;70.29;101462.75;6183272;23;20011;-87
2022/08/22 04:03:43;;;;;;;10.55;8.15;;;;;;;17.13;70.48;101465.72;6184892;23;20004;-88
2022/08/22 04:06:29;;;;;;;14.18;8.23;;;;;;;17.06;69.05;101457.16;6185819;23;20000;-87
2022/08/22 04:09:39;;;;;;;11.15;8.05;;;;;;;17.13;67.97;101463.03;6184717;23;20490;-87
2022/08/22 04:12:43;;;;;;;10.15;7.63;;;;;;;17.15;68.82;101465.59;6170288;23;20440;-88
2022/08/22 04:15:31;;;;;;;12.07;8.38;;;;;;;17.01;68.78;101467.25;6211218;23;20091;-87
2022/08/22 04:18:17;;;;;;;10.02;7.38;;;;;;;16.92;69.26;101473.13;6211775;23;20058;-87
2022/08/22 04:20:55;;;;;;;11.13;7.38;;;;;;;16.83;69.15;101473.63;6211295;23;20162;-88
2022/08/22 04:23:37;;;;;;;9.98;7.43;;;;;;;16.75;68.86;101471.41;6185137;23;20748;-88
2022/08/22 04:26:09;;;;;;;9.82;7.45;;;;;;;16.64;69.83;101454.22;6185097;23;20004;-87
2022/08/22 04:28:40;;;;;;;11.48;8.27;;;;;;;16.78;70.91;101476.56;6211414;23;20440;-88
2022/08/22 04:31:17;;;;;;;8.40;6.72;;;;;;;16.76;69.14;101465.13;6184583;23;20086;-89
2022/08/22 04:33:56;;;;;;;10.55;7.55;;;;;;;16.68;71.28;101461.97;6211089;23;20005;-88
2022/08/22 04:36:31;;;;;;;9.73;7.72;;;;;;;16.66;71.78;101471.03;6184820;23;20000;-87
2022/08/22 04:39:07;;;;;;;8.02;7.03;;;;;;;16.80;70.93;101474.69;6184611;23;20011;-88
2022/08/22 04:42:28;;;;;;;11.15;7.15;;;;;;;16.89;69.84;101473.31;6210805;23;20000;-87
2022/08/22 04:44:59;;;;;;;8.63;7.25;;;;;;;16.85;70.62;101479.78;6110315;23;20063;-88
2022/08/22 04:47:48;;;;;;;10.07;7.13;;;;;;;16.83;70.02;101465.63;6211697;23;20377;-88
2022/08/22 04:50:29;;;;;;;13.13;8.00;;;;;;;16.88;70.33;101481.38;6210684;23;20012;-88
2022/08/22 04:53:06;;;;;;;11.30;9.30;;;;;;;16.86;71.12;101483.31;6210508;23;20008;-88
2022/08/22 04:56:10;;;;;;;14.50;8.25;;;;;;;16.97;70.05;101489.78;6210922;23;20001;-88
2022/08/22 04:58:54;;;;;;;11.75;8.20;;;;;;;16.83;72.33;101487.88;6124482;23;20018;-88
2022/08/22 05:01:24;;;;;;;14.57;8.93;;;;;;;16.73;72.58;101483.97;6210515;23;20443;-88
2022/08/22 05:04:01;;;;;;;11.98;8.85;;;;;;;16.78;71.53;101479.22;6184377;23;20005;-87
2022/08/22 05:06:31;;;;;;;12.75;8.50;;;;;;;16.97;71.23;101500.47;6210808;23;20001;-88
2022/08/22 05:09:04;;;;;;;9.75;7.60;;;;;;;17.07;70.81;101493.66;6210612;23;20395;-87
2022/08/22 05:11:33;;;;;;;10.48;7.65;;;;;;;17.15;70.32;101503.00;6184530;23;20000;-88
2022/08/22 05:14:05;;;;;;;11.57;7.53;;;;;;;17.18;69.69;101498.38;6183323;23;20036;-88
2022/08/22 05:16:38;;;;;;;;;;;;;;;17.38;68.55;101497.19;6184558;23;20011;-87
2022/08/22 05:19:30;;;;;;;14.07;8.20;;;;;;;17.35;69.77;101497.41;6211438;23;19957;-88
2022/08/22 05:21:56;;;;;;;13.65;9.10;;;;;;;17.17;72.13;101495.78;6171211;23;20091;-88
2022/08/22 05:24:42;;;;;;;13.93;9.35;;;;;;;17.24;71.07;101500.69;6184397;23;20009;-88
2022/08/22 05:27:17;;;;;;;13.13;8.05;;;;;;;17.28;71.08;101496.03;6213663;23;20001;-87
2022/08/22 05:29:48;;;;;;;10.25;7.43;;;;;;;17.37;70.43;101498.16;6184246;23;20028;-87
2022/08/22 05:32:27;;;;;;;10.80;7.93;;;;;;;17.54;69.47;101507.88;6210261;23;20417;-88
2022/08/22 05:34:58;;;;;;;12.70;7.35;;;;;;;17.59;68.21;101517.34;6211420;23;20484;-87
2022/08/22 05:37:33;;;;;;;14.25;8.93;;;;;;;17.64;69.22;101508.19;6184560;23;20028;-88
2022/08/22 05:40:00;;;;;;;10.40;7.50;;;;;;;17.69;69.45;101511.47;6183025;23;20084;-89
2022/08/22 05:42:30;;;;;;;12.75;8.80;;;;;;;17.70;70.43;101508.69;6210746;23;20448;-87
2022/08/22 05:44:56;;;;;;;9.65;8.52;;;;;;;17.78;69.24;101506.47;6183995;23;20012;-88
2022/08/22 05:47:23;;;;;;;9.52;7.97;;;;;;;17.93;69.47;101510.03;6210964;23;20095;-88
2022/08/22 05:49:56;;;;;;;10.75;8.00;;;;;;;17.96;69.25;101512.53;6210854;23;20035;-88
2022/08/22 05:52:40;;;;;;;12.57;9.98;;;;;;;17.99;69.94;101523.03;6210972;23;20012;-88
2022/08/22 05:55:22;;;;;;;13.20;10.77;;;;;;;17.95;69.83;101507.25;6210155;23;20506;-88
2022/08/22 05:57:54;;;;;;;11.63;9.70;;;;;;;18.05;69.21;101516.47;6210783;23;20428;-88
2022/08/22 06:00:24;;;;;;;13.75;9.60;;;;;;;18.04;70.19;101495.97;6182827;23;20007;-87
2022/08/22 06:03:06;;;;;;;11.73;9.68;;;;;;;18.18;70.48;101508.53;6182990;23;20394;-88
2022/08/22 06:05:38;;;;;;;13.15;9.18;;;;;;;18.15;69.44;101504.22;6211531;23;20004;-88
2022/08/22 06:08:13;;;;;;;11.73;9.67;;;;;;;18.31;69.69;101506.81;6183102;23;20436;-88
2022/08/22 06:10:43;;;;;;;12.93;9.77;;;;;;;18.35;70.29;101506.53;6210573;23;20009;-87
2022/08/22 06:13:36;;;;;;;13.95;10.68;;;;;;;18.55;68.75;101513.31;6182695;23;20008;-89
2022/08/22 06:16:15;;;;;;;15.07;11.00;;;;;;;18.54;69.21;101513.41;6209955;23;20494;-88
2022/08/22 06:18:43;;;;;;;13.90;10.75;;;;;;;18.68;68.79;101505.38;6184076;23;20488;-88
2022/08/22 06:21:19;;;;;;;15.75;12.13;;;;;;;18.75;68.88;101509.44;6211062;23;20028;-88
2022/08/22 06:23:51;;;;;;;16.40;12.55;;;;;;;18.80;68.80;101504.63;6184941;23;20008;-89
2022/08/22 06:26:18;;;;;;;18.48;11.60;;;;;;;18.89;68.11;101502.31;6184872;23;20012;-89
2022/08/22 06:28:46;;;;;;;21.00;13.00;;;;;;;19.00;67.84;101513.19;6183392;23;20119;-89
2022/08/22 06:31:20;;;;;;;15.35;12.65;;;;;;;19.13;68.17;101524.84;6207963;23;20028;-89
2022/08/22 06:33:56;;;;;;;16.85;13.00;;;;;;;19.15;67.69;101516.69;6183495;23;20016;-89
2022/08/22 06:36:32;;;;;;;16.05;13.82;;;;;;;19.18;67.76;101505.78;6211219;23;20001;-90
2022/08/22 06:39:32;;;;;;;18.25;13.38;;;;;;;19.35;68.24;101527.84;6211067;23;20031;-90
2022/08/22 06:42:04;;;;;;;18.67;13.27;;;;;;;19.36;67.76;101526.88;6184311;23;20054;-90
2022/08/22 06:44:36;;;;;;;21.25;13.75;;;;;;;19.31;69.21;101531.69;6184357;23;20004;-90
2022/08/22 06:47:11;;;;;;;16.10;12.05;;;;;;;19.35;68.36;101519.81;6184384;23;20091;-90
2022/08/22 06:49:39;;;;;;;22.58;13.52;;;;;;;19.45;67.77;101525.41;6210395;23;20128;-90
2022/08/22 06:52:10;;;;;;;18.58;13.68;;;;;;;19.45;68.71;101522.72;6208863;23;20447;-89
2022/08/22 06:54:42;;;;;;;16.08;13.07;;;;;;;19.55;68.39;101533.69;6182495;23;20024;-89
2022/08/22 06:57:25;;;;;;;18.23;12.50;;;;;;;19.56;67.70;101517.50;6210904;23;20004;-89
2022/08/22 06:59:52;;;;;;;16.35;11.70;;;;;;;19.69;67.20;101536.34;6182786;23;20008;-90
2022/08/22 07:02:37;;;;;;;20.08;13.73;;;;;;;19.82;66.91;101539.06;6182760;23;20005;-89
2022/08/22 07:05:04;;;;;;;15.60;11.77;;;;;;;19.86;66.10;101541.44;6183761;23;20004;-89
2022/08/22 07:07:30;;;;;;;17.88;12.05;;;;;;;19.82;66.47;101533.72;6211095;23;20008;-88
2022/08/22 07:09:56;;;;;;;15.73;11.40;;;;;;;19.90;66.29;101544.75;6209161;23;20016;-89
2022/08/22 07:12:29;;;;;;;15.48;10.90;;;;;;;19.93;65.81;101546.38;6184245;23;20412;-89
2022/08/22 07:15:07;;;;;;;19.95;13.20;;;;;;;19.97;66.44;101542.53;6209517;23;20001;-89
2022/08/22 07:17:32;;;;;;;16.77;11.93;;;;;;;19.96;65.85;101535.41;6184005;23;20011;-88
2022/08/22 07:20:21;;;;;;;19.25;13.45;;;;;;;20.10;66.16;101549.63;6182318;23;20417;-89
2022/08/22 07:22:56;;;;;;;15.55;12.35;;;;;;;20.17;65.84;101552.75;6182496;23;20059;-88
2022/08/22 07:25:23;;;;;;;16.92;13.25;;;;;;;20.21;65.21;101540.81;6184539;23;20004;-88
2022/08/22 07:28:02;;;;;;;15.52;11.60;;;;;;;20.30;65.12;101555.44;6213389;23;20011;-88
2022/08/22 07:30:54;;;;;;;12.75;11.45;;;;;;;20.41;65.22;101549.31;6211160;23;20008;-88
2022/08/22 07:33:39;;;;;;;14.93;11.10;;;;;;;20.54;65.01;101534.94;6183926;23;20440;-88
2022/08/22 07:36:21;;;;;;;17.33;11.85;;;;;;;20.77;64.59;101546.75;6209957;23;20075;-88
2022/08/22 07:39:15;;;;;;;19.00;12.38;;;;;;;21.02;64.51;101547.66;6184625;23;20036;-88
2022/08/22 07:42:13;;;;;;;18.00;12.30;;;;;;;21.23;63.36;101527.25;6167691;23;20007;-90
2022/08/22 07:45:04;;;;;;;17.02;11.90;;;;;;;21.57;63.02;101528.31;6183183;23;20008;-88
2022/08/22 07:48:01;;;;;;;17.95;12.10;;;;;;;21.86;62.95;101527.91;6211728;23;20473;-88
2022/08/22 07:50:33;;;;;;;13.77;11.90;;;;;;;22.10;61.94;101526.03;6157616;23;20564;-88
2022/08/22 07:53:17;;;;;;;;;;;;;;;22.55;61.55;101525.25;6182697;23;20012;-89
2022/08/22 07:55:43;;;;;;;15.25;11.90;;;;;;;22.74;60.20;101525.47;6183447;23;19904;-88
2022/08/22 07:58:12;;;;;;;21.40;14.10;;;;;;;22.48;59.52;101521.34;6184189;23;20004;-88
2022/08/22 08:00:43;;;;;;;20.80;13.55;;;;;;;22.80;59.84;101524.13;6209859;23;20073;-88
2022/08/22 08:03:10;;;;;;;16.17;13.07;;;;;;;23.25;58.22;101514.13;6210792;23;20000;-87
2022/08/22 08:05:39;;;;;;;17.88;12.98;;;;;;;23.53;57.15;101520.78;6209960;23;20750;-88
2022/08/22 08:08:25;;;;;;;19.83;12.95;;;;;;;23.82;56.66;101522.91;6210245;23;20012;-86
2022/08/22 08:10:55;;;;;;;18.63;13.20;;;;;;;23.84;56.00;101518.25;6209161;23;20008;-87
2022/08/22 08:13:27;;;;;;;16.10;12.63;;;;;;;24.36;54.88;101517.31;6184350;23;20005;-87
2022/08/22 08:15:53;;;;;;;18.13;11.98;;;;;;;24.88;54.79;101511.81;6209454;23;20012;-85
2022/08/22 08:18:24;;;;;;;16.48;12.27;;;;;;;25.19;53.37;101507.22;6210714;23;20001;-86
2022/08/22 08:21:04;;;;;;;17.52;12.55;;;;;;;25.69;51.27;101510.66;6182919;23;20072;-87
2022/08/22 08:23:36;;;;;;;18.92;12.63;;;;;;;26.28;50.41;101508.72;6183358;23;20432;-87
2022/08/22 08:26:18;;;;;;;16.00;12.02;;;;;;;26.80;50.46;101491.97;6182338;23;20009;-87
2022/08/22 08:28:48;;;;;;;18.63;12.70;;;;;;;27.46;47.30;101499.81;6183043;23;20482;-87
2022/08/22 08:31:36;;;;;;;14.95;10.05;;;;;;;28.16;47.68;101495.28;6182160;23;20082;-85
2022/08/22 08:34:07;;;;;;;15.82;11.23;;;;;;;28.04;44.33;101501.16;6211732;23;20008;-86
2022/08/22 08:36:49;;;;;;;14.75;10.82;;;;;;;27.56;45.19;101510.59;6212826;23;20084;-87
2022/08/22 08:39:56;;;;;;;17.13;11.10;;;;;;;27.01;48.14;101500.69;6211249;23;20012;-86
2022/08/22 08:46:07;;;;;;;15.45;9.75;;;;;;;26.64;49.19;101500.75;6211208;23;20024;-87
2022/08/22 08:48:32;;;;;;;14.77;10.70;;;;;;;26.76;47.12;101507.69;6212171;23;20011;-87
2022/08/22 08:51:36;;;;;;;17.77;11.30;;;;;;;26.64;48.55;101501.59;6184985;23;20005;-87
2022/08/22 08:54:36;;;;;;;13.73;10.43;;;;;;;26.28;49.77;101502.44;6209900;23;20260;-87
2022/08/22 08:57:28;;;;;;;12.13;10.23;;;;;;;26.70;47.73;101503.72;6185400;23;20054;-88
2022/08/22 09:00:04;;;;;;;13.82;10.15;;;;;;;27.28;47.45;101502.56;6210508;23;20284;-87
2022/08/22 09:02:54;;;;;;;14.48;10.05;;;;;;;27.39;47.06;101496.88;6212219;23;20080;-87
2022/08/22 09:05:33;;;;;;;17.63;9.85;;;;;;;27.38;46.76;101499.75;6182174;23;20051;-87
2022/08/22 09:08:19;;;;;;;16.88;9.50;;;;;;;27.32;45.99;101493.06;6181856;23;20044;-86
2022/08/22 09:11:22;;;;;;;12.98;9.50;;;;;;;27.46;47.06;101499.81;6210093;23;20376;-87
2022/08/22 09:14:00;;;;;;;16.73;9.30;;;;;;;27.36;46.43;101489.03;6210151;23;20398;-87
2022/08/22 09:17:03;;;;;;;14.88;8.13;;;;;;;27.28;46.52;101488.09;6184380;23;20424;-87
2022/08/22 09:19:49;;;;;;;16.42;9.07;;;;;;;27.18;46.81;101486.31;6209222;23;20007;-87
2022/08/22 09:22:17;;;;;;;14.50;7.82;;;;;;;27.10;46.97;101488.97;6211542;23;20459;-87
2022/08/22 09:25:20;;;;;;;11.95;7.05;;;;;;;27.15;45.82;101494.78;6211044;23;20008;-88
2022/08/22 09:28:10;;;;;;;13.27;6.80;;;;;;;27.03;44.07;101484.25;6212488;23;20058;-88
2022/08/22 09:31:10;;;;;;;9.50;5.50;;;;;;;26.98;45.51;101486.56;6212535;23;20024;-87
2022/08/22 09:33:53;;;;;;;7.45;5.00;;;;;;;26.84;44.19;101488.78;6124204;23;20499;-87
2022/08/22 09:36:38;;;;;;;10.35;4.07;;;;;;;26.80;43.77;101481.09;6213663;23;20004;-87
2022/08/22 09:39:15;;;;;;;13.82;4.47;;;;;;;26.45;43.77;101490.84;6185876;23;20326;-88
2022/08/22 09:41:57;;;;;;;10.63;4.70;;;;;;;26.35;44.28;101482.72;6212091;23;20003;-86
2022/08/22 09:45:04;;;;;;;11.25;4.88;;;;;;;26.46;44.50;101489.84;6211970;23;20134;-87
2022/08/22 09:47:40;;;;;;;7.07;4.07;;;;;;;26.47;43.19;101493.41;6185383;23;20009;-87
2022/08/22 09:50:19;;;;;;;10.18;5.13;;;;;;;26.48;43.85;101481.56;6212587;23;20087;-87
2022/08/22 09:53:30;;;;;;;9.48;5.15;;;;;;;26.63;44.64;101486.34;6186650;23;20004;-87
2022/08/22 09:56:05;;;;;;;8.02;5.47;;;;;;;26.67;43.68;101478.75;6212763;23;20071;-87
2022/08/22 09:58:46;;;;;;;10.73;5.28;;;;;;;26.83;43.99;101484.38;6212297;23;20024;-88
2022/08/22 10:01:43;;;;;;;10.30;5.00;;;;;;;26.85;44.30;101485.06;6185234;23;20004;-87
2022/08/22 10:04:30;;;;;;;13.50;5.82;;;;;;;26.80;44.43;101476.53;6212933;23;20424;-87
2022/08/22 10:07:26;;;;;;;9.57;5.60;;;;;;;27.03;44.93;101476.94;6213274;23;20050;-87
2022/08/22 10:10:19;;;;;;;10.50;6.00;;;;;;;27.29;42.76;101487.09;6212649;23;20016;-88
2022/08/22 10:12:58;;;;;;;13.30;5.45;;;;;;;27.59;41.40;101475.81;6212603;23;20147;-87
2022/08/22 10:15:36;;;;;;;9.13;4.82;;;;;;;27.88;40.68;101467.41;6185263;23;20322;-87
2022/08/22 10:18:37;;;;;;;12.10;5.90;;;;;;;27.93;41.68;101467.81;6185660;23;20031;-87
2022/08/22 10:21:23;;;;;;;10.70;5.57;;;;;;;27.65;41.15;101472.50;6085914;23;20102;-87
2022/08/22 10:24:23;;;;;;;8.57;4.85;;;;;;;28.16;42.06;101461.81;6211955;23;20055;-87
2022/08/22 10:26:56;;;;;;;7.22;5.32;;;;;;;28.47;39.55;101454.00;6211775;23;20082;-87
2022/08/22 10:29:55;;;;;;;11.55;5.10;;;;;;;28.84;40.87;101458.22;6185611;23;20000;-87
2022/08/22 10:32:46;;;;;;;10.43;4.90;;;;;;;29.43;39.46;101454.44;6211757;23;20476;-87
2022/08/22 10:35:29;;;;;;;9.82;4.57;;;;;;;29.59;38.14;101450.03;6169583;23;20012;-87
2022/08/22 10:38:13;;;;;;;12.02;4.50;;;;;;;30.02;37.83;101458.81;6212112;23;20601;-87
2022/08/22 10:40:47;;;;;;;11.90;4.40;;;;;;;30.44;35.73;101451.22;6210900;23;19999;-87
2022/08/22 10:43:34;;;;;;;9.90;4.35;;;;;;;29.91;36.84;101447.25;6189443;23;20062;-88
2022/08/22 10:46:05;;;;;;;9.10;3.80;;;;;;;29.71;35.84;101451.41;6183724;23;20008;-88
2022/08/22 10:48:38;;;;;;;9.75;4.40;;;;;;;30.06;35.22;101450.13;6213303;23;20005;-88
2022/08/22 10:51:35;;;;;;;10.07;4.13;;;;;;;30.59;36.73;101436.81;6186174;23;20027;-88
2022/08/22 10:54:28;;;;;;;9.73;4.20;;;;;;;30.71;35.85;101436.28;6174374;23;20279;-88
2022/08/22 10:57:06;;;;;;;11.45;4.30;;;;;;;30.62;35.04;101436.47;6210686;23;20080;-86
2022/08/22 10:59:42;;;;;;;9.00;3.60;;;;;;;31.35;34.01;101437.94;6185065;23;20011;-87
2022/08/22 11:02:14;;;;;;;11.15;3.72;;;;;;;32.04;33.41;101440.53;6211065;23;20371;-87
2022/08/22 11:05:05;;;;;;;8.55;3.30;;;;;;;32.52;33.39;101433.66;6212089;23;20015;-87
2022/08/22 11:07:52;;;;;;;9.23;3.30;;;;;;;32.45;32.26;101429.97;6211941;23;20027;-87
2022/08/22 11:10:42;;;;;;;6.82;2.90;;;;;;;31.65;31.85;101441.59;6183918;23;20004;-87
2022/08/22 11:13:41;;;;;;;9.15;2.97;;;;;;;31.70;32.17;101440.00;6182636;23;20015;-88
2022/08/22 11:16:12;;;;;;;7.65;2.72;;;;;;;31.75;32.07;101431.22;6182771;23;20019;-87
2022/08/22 11:19:14;;;;;;;10.07;2.97;;;;;;;31.67;32.57;101434.91;6211383;23;20000;-87
2022/08/22 11:21:58;;;;;;;5.40;2.53;;;;;;;31.50;31.37;101422.44;6183474;23;20011;-88
2022/08/22 11:24:29;;;;;;;7.47;3.17;;;;;;;31.28;30.78;101439.69;6210120;23;20015;-87
2022/08/22 11:27:25;;;;;;;11.27;2.95;;;;;;;31.50;32.05;101428.75;6210542;23;20001;-87
2022/08/22 11:30:09;;;;;;;7.22;2.50;;;;;;;31.70;31.80;101431.78;6182929;23;20084;-86
2022/08/22 11:32:39;;;;;;;8.52;2.78;;;;;;;31.69;30.29;101432.00;6183896;23;20460;-87
2022/08/22 11:35:35;;;;;;;7.22;2.47;;;;;;;31.79;31.50;101418.88;6209179;23;20776;-87
2022/08/22 11:38:19;;;;;;;7.65;2.72;;;;;;;31.77;30.28;101425.59;6209014;23;20123;-88
2022/08/22 11:41:00;;;;;;;8.48;2.80;;;;;;;31.52;31.19;101431.28;6183597;23;20023;-87
2022/08/22 11:43:44;;;;;;;6.90;2.40;;;;;;;31.21;29.16;101426.75;6182728;23;20012;-87
2022/08/22 11:46:22;;;;;;;7.78;2.75;;;;;;;31.00;31.45;101421.09;6183255;23;20433;-87
2022/08/22 11:49:09;;;;;;;4.63;2.17;;;;;;;31.11;31.13;101422.56;6209786;23;20035;-87
2022/08/22 11:51:56;;;;;;;6.38;2.35;;;;;;;30.97;30.69;101422.31;6183842;23;20043;-88
2022/08/22 11:54:51;;;;;;;6.45;2.55;;;;;;;31.03;30.66;101415.28;6183424;23;20032;-88
2022/08/22 11:57:25;;;;;;;7.88;2.40;;;;;;;31.04;30.34;101405.19;6209875;23;20005;-87
2022/08/22 12:00:18;;;;;;;6.90;2.30;;;;;;;31.06;30.18;101409.44;6210069;23;20433;-88
2022/08/22 12:02:56;;;;;;;7.88;2.30;;;;;;;31.24;29.02;101406.38;6182772;23;20012;-87
2022/08/22 12:05:30;;;;;;;4.00;2.28;;;;;;;31.15;31.30;101419.28;6183516;23;20008;-87
2022/08/22 12:08:05;;;;;;;8.27;2.70;;;;;;;31.20;30.96;101410.53;6212362;23;20005;-88
2022/08/22 12:10:41;;;;;;;9.05;2.45;;;;;;;30.96;29.92;101406.97;6214811;23;20079;-87
2022/08/22 12:13:16;;;;;;;6.70;2.45;;;;;;;30.99;29.94;101412.03;6213574;23;20028;-88
2022/08/22 12:16:02;;;;;;;5.15;2.33;;;;;;;31.00;31.51;101411.00;6214823;23;20039;-88
2022/08/22 12:18:30;;;;;;;4.82;2.45;;;;;;;30.88;31.17;101412.47;6187738;23;20009;-88
2022/08/22 12:21:01;;;;;;;8.05;2.53;;;;;;;30.87;29.37;101404.44;6214294;23;20793;-88
2022/08/22 12:23:45;;;;;;;5.47;2.70;;;;;;;30.84;31.10;101404.81;6187115;23;20019;-88
2022/08/22 12:26:20;;;;;;;9.48;2.42;;;;;;;30.71;31.19;101408.97;6188093;23;20032;-88
2022/08/22 12:29:04;;;;;;;4.45;2.08;;;;;;;30.76;31.48;101402.97;6215250;23;20008;-88
2022/08/22 12:31:38;;;;;;;7.78;2.35;;;;;;;30.54;29.72;101401.03;6214657;23;20043;-88